sensor_id;sensor_type;location;lat;lon;timestamp;pressure;altitude;pressure_sealevel;temperature;humidity
77469;BME280;68840;50.272;12.818;2024-01-06T00:00:06;94828;;;3.7;66.5
77469;BME280;68840;50.272;12.818;2024-01-06T00:02:06;94832;;;3.7;66.2
77469;BME280;68840;50.272;12.818;2024-01-06T00:04:05;94835;;;3.7;66.5
77469;BME280;68840;50.272;12.818;2024-01-06T00:06:05;94838;;;3.7;66.6
77469;BME280;68840;50.272;12.818;2024-01-06T00:08:06;94837;;;3.7;66.7
77469;BME280;68840;50.272;12.818;2024-01-06T00:10:06;94836;;;3.7;67.1
77469;BME280;68840;50.272;12.818;2024-01-06T00:12:06;94835;;;3.7;67.1
77469;BME280;68840;50.272;12.818;2024-01-06T00:14:05;94837;;;3.8;66.8
77469;BME280;68840;50.272;12.818;2024-01-06T00:16:06;94838;;;3.8;67.3
77469;BME280;68840;50.272;12.818;2024-01-06T00:18:06;94836;;;3.8;67.0
77469;BME280;68840;50.272;12.818;2024-01-06T00:20:07;94839;;;3.8;66.9
77469;BME280;68840;50.272;12.818;2024-01-06T00:22:05;94842;;;3.8;67.2
77469;BME280;68840;50.272;12.818;2024-01-06T00:24:06;94846;;;3.9;67.7
77469;BME280;68840;50.272;12.818;2024-01-06T00:26:07;94845;;;3.9;67.0
77469;BME280;68840;50.272;12.818;2024-01-06T00:28:05;94846;;;4.0;66.6
77469;BME280;68840;50.272;12.818;2024-01-06T00:30:06;94842;;;4.0;66.4
77469;BME280;68840;50.272;12.818;2024-01-06T00:32:06;94841;;;4.0;66.4
77469;BME280;68840;50.272;12.818;2024-01-06T00:34:05;94842;;;4.0;66.3
77469;BME280;68840;50.272;12.818;2024-01-06T00:36:07;94840;;;4.0;66.4
77469;BME280;68840;50.272;12.818;2024-01-06T00:38:06;94839;;;4.0;66.2
77469;BME280;68840;50.272;12.818;2024-01-06T00:40:07;94836;;;4.0;65.9
77469;BME280;68840;50.272;12.818;2024-01-06T00:42:06;94837;;;4.0;65.9
77469;BME280;68840;50.272;12.818;2024-01-06T00:44:05;94840;;;4.0;66.2
77469;BME280;68840;50.272;12.818;2024-01-06T00:46:06;94841;;;3.9;67.0
77469;BME280;68840;50.272;12.818;2024-01-06T00:48:06;94843;;;4.0;67.0
77469;BME280;68840;50.272;12.818;2024-01-06T00:50:06;94845;;;4.0;67.1
77469;BME280;68840;50.272;12.818;2024-01-06T00:52:06;94844;;;4.0;67.0
77469;BME280;68840;50.272;12.818;2024-01-06T00:54:05;94846;;;4.0;67.3
77469;BME280;68840;50.272;12.818;2024-01-06T00:56:05;94846;;;4.0;67.2
77469;BME280;68840;50.272;12.818;2024-01-06T00:58:06;94846;;;4.0;67.3
77469;BME280;68840;50.272;12.818;2024-01-06T01:00:07;94846;;;4.0;67.7
77469;BME280;68840;50.272;12.818;2024-01-06T01:02:06;94847;;;4.1;67.5
77469;BME280;68840;50.272;12.818;2024-01-06T01:04:05;94850;;;4.1;67.6
77469;BME280;68840;50.272;12.818;2024-01-06T01:06:05;94851;;;4.1;67.5
77469;BME280;68840;50.272;12.818;2024-01-06T01:08:06;94851;;;4.1;67.5
77469;BME280;68840;50.272;12.818;2024-01-06T01:10:06;94851;;;4.1;67.5
77469;BME280;68840;50.272;12.818;2024-01-06T01:12:06;94854;;;4.2;67.7
77469;BME280;68840;50.272;12.818;2024-01-06T01:14:06;94858;;;4.2;68.0
77469;BME280;68840;50.272;12.818;2024-01-06T01:16:06;94860;;;4.2;68.4
77469;BME280;68840;50.272;12.818;2024-01-06T01:18:06;94864;;;4.2;68.3
77469;BME280;68840;50.272;12.818;2024-01-06T01:20:06;94861;;;4.2;68.1
77469;BME280;68840;50.272;12.818;2024-01-06T01:22:06;94860;;;4.3;68.1
77469;BME280;68840;50.272;12.818;2024-01-06T01:24:06;94860;;;4.3;68.4
77469;BME280;68840;50.272;12.818;2024-01-06T01:26:06;94856;;;4.3;68.1
77469;BME280;68840;50.272;12.818;2024-01-06T01:28:05;94855;;;4.3;67.9
77469;BME280;68840;50.272;12.818;2024-01-06T01:30:06;94854;;;4.4;67.8
77469;BME280;68840;50.272;12.818;2024-01-06T01:32:06;94853;;;4.4;68.3
77469;BME280;68840;50.272;12.818;2024-01-06T01:34:05;94855;;;4.4;68.3
77469;BME280;68840;50.272;12.818;2024-01-06T01:36:06;94856;;;4.4;68.0
77469;BME280;68840;50.272;12.818;2024-01-06T01:38:07;94856;;;4.4;68.2
77469;BME280;68840;50.272;12.818;2024-01-06T01:40:07;94854;;;4.5;68.2
77469;BME280;68840;50.272;12.818;2024-01-06T01:42:05;94853;;;4.5;68.0
77469;BME280;68840;50.272;12.818;2024-01-06T01:44:05;94854;;;4.6;68.0
77469;BME280;68840;50.272;12.818;2024-01-06T01:46:05;94853;;;4.6;67.6
77469;BME280;68840;50.272;12.818;2024-01-06T01:48:06;94852;;;4.6;67.4
77469;BME280;68840;50.272;12.818;2024-01-06T01:50:07;94851;;;4.6;67.5
77469;BME280;68840;50.272;12.818;2024-01-06T01:52:05;94849;;;4.7;67.5
77469;BME280;68840;50.272;12.818;2024-01-06T01:54:06;94847;;;4.7;67.2
77469;BME280;68840;50.272;12.818;2024-01-06T01:56:06;94847;;;4.7;67.2
77469;BME280;68840;50.272;12.818;2024-01-06T01:58:06;94846;;;4.7;67.3
77469;BME280;68840;50.272;12.818;2024-01-06T02:00:07;94846;;;4.7;67.4
77469;BME280;68840;50.272;12.818;2024-01-06T02:02:06;94848;;;4.8;66.8
77469;BME280;68840;50.272;12.818;2024-01-06T02:04:06;94851;;;4.8;67.2
77469;BME280;68840;50.272;12.818;2024-01-06T02:06:06;94849;;;4.8;67.3
77469;BME280;68840;50.272;12.818;2024-01-06T02:08:06;94848;;;4.8;67.3
77469;BME280;68840;50.272;12.818;2024-01-06T02:10:06;94847;;;4.9;67.2
77469;BME280;68840;50.272;12.818;2024-01-06T02:12:06;94848;;;4.9;66.9
77469;BME280;68840;50.272;12.818;2024-01-06T02:14:05;94846;;;4.9;67.1
77469;BME280;68840;50.272;12.818;2024-01-06T02:16:06;94845;;;4.9;67.0
77469;BME280;68840;50.272;12.818;2024-01-06T02:18:06;94847;;;4.9;67.5
77469;BME280;68840;50.272;12.818;2024-01-06T02:20:07;94846;;;4.9;66.5
77469;BME280;68840;50.272;12.818;2024-01-06T02:22:05;94849;;;4.9;66.2
77469;BME280;68840;50.272;12.818;2024-01-06T02:24:06;94854;;;4.9;66.8
77469;BME280;68840;50.272;12.818;2024-01-06T02:26:06;94855;;;4.9;67.1
77469;BME280;68840;50.272;12.818;2024-01-06T02:28:05;94856;;;4.9;67.2
77469;BME280;68840;50.272;12.818;2024-01-06T02:30:06;94856;;;4.9;67.2
77469;BME280;68840;50.272;12.818;2024-01-06T02:32:06;94858;;;4.9;67.2
77469;BME280;68840;50.272;12.818;2024-01-06T02:34:05;94858;;;5.0;67.4
77469;BME280;68840;50.272;12.818;2024-01-06T02:36:06;94858;;;5.0;67.3
77469;BME280;68840;50.272;12.818;2024-01-06T02:38:06;94860;;;5.0;67.2
77469;BME280;68840;50.272;12.818;2024-01-06T02:40:06;94858;;;5.0;67.1
77469;BME280;68840;50.272;12.818;2024-01-06T02:42:06;94858;;;5.0;67.3
77469;BME280;68840;50.272;12.818;2024-01-06T02:44:05;94857;;;5.0;67.5
77469;BME280;68840;50.272;12.818;2024-01-06T02:46:07;94858;;;5.0;67.3
77469;BME280;68840;50.272;12.818;2024-01-06T02:48:06;94858;;;5.1;67.0
77469;BME280;68840;50.272;12.818;2024-01-06T02:50:06;94859;;;5.1;66.9
77469;BME280;68840;50.272;12.818;2024-01-06T02:52:06;94857;;;5.1;66.7
77469;BME280;68840;50.272;12.818;2024-01-06T02:54:05;94857;;;5.1;67.0
77469;BME280;68840;50.272;12.818;2024-01-06T02:56:10;94854;;;5.1;67.2
77469;BME280;68840;50.272;12.818;2024-01-06T02:58:05;94853;;;5.1;66.9
77469;BME280;68840;50.272;12.818;2024-01-06T03:00:07;94855;;;5.1;66.4
77469;BME280;68840;50.272;12.818;2024-01-06T03:02:06;94856;;;5.1;66.6
77469;BME280;68840;50.272;12.818;2024-01-06T03:04:05;94859;;;5.1;66.4
77469;BME280;68840;50.272;12.818;2024-01-06T03:06:06;94863;;;5.1;66.6
77469;BME280;68840;50.272;12.818;2024-01-06T03:08:05;94865;;;5.1;66.8
77469;BME280;68840;50.272;12.818;2024-01-06T03:10:06;94865;;;5.1;67.0
77469;BME280;68840;50.272;12.818;2024-01-06T03:12:07;94866;;;5.1;67.0
77469;BME280;68840;50.272;12.818;2024-01-06T03:14:05;94866;;;5.1;66.6
77469;BME280;68840;50.272;12.818;2024-01-06T03:16:07;94867;;;5.1;66.3
77469;BME280;68840;50.272;12.818;2024-01-06T03:18:06;94866;;;5.1;66.4
77469;BME280;68840;50.272;12.818;2024-01-06T03:20:07;94864;;;5.1;66.4
77469;BME280;68840;50.272;12.818;2024-01-06T03:22:05;94862;;;5.1;67.0
77469;BME280;68840;50.272;12.818;2024-01-06T03:24:07;94860;;;5.1;67.0
77469;BME280;68840;50.272;12.818;2024-01-06T03:26:06;94859;;;5.1;66.3
77469;BME280;68840;50.272;12.818;2024-01-06T03:28:06;94860;;;5.1;66.4
77469;BME280;68840;50.272;12.818;2024-01-06T03:30:06;94859;;;5.1;66.4
77469;BME280;68840;50.272;12.818;2024-01-06T03:32:06;94859;;;5.1;66.5
77469;BME280;68840;50.272;12.818;2024-01-06T03:34:05;94861;;;5.1;66.9
77469;BME280;68840;50.272;12.818;2024-01-06T03:36:06;94861;;;5.1;66.2
77469;BME280;68840;50.272;12.818;2024-01-06T03:38:05;94859;;;5.1;66.5
77469;BME280;68840;50.272;12.818;2024-01-06T03:40:06;94860;;;5.1;66.9
77469;BME280;68840;50.272;12.818;2024-01-06T03:42:06;94860;;;5.1;66.8
77469;BME280;68840;50.272;12.818;2024-01-06T03:44:06;94858;;;5.1;67.0
77469;BME280;68840;50.272;12.818;2024-01-06T03:46:05;94857;;;5.1;66.8
77469;BME280;68840;50.272;12.818;2024-01-06T03:48:06;94855;;;5.1;66.6
77469;BME280;68840;50.272;12.818;2024-01-06T03:50:06;94852;;;5.1;66.5
77469;BME280;68840;50.272;12.818;2024-01-06T03:52:07;94851;;;5.1;66.5
77469;BME280;68840;50.272;12.818;2024-01-06T03:54:05;94852;;;5.1;66.9
77469;BME280;68840;50.272;12.818;2024-01-06T03:56:06;94855;;;5.1;67.1
77469;BME280;68840;50.272;12.818;2024-01-06T03:58:05;94858;;;5.1;66.8
77469;BME280;68840;50.272;12.818;2024-01-06T04:00:06;94860;;;5.2;66.8
77469;BME280;68840;50.272;12.818;2024-01-06T04:02:05;94863;;;5.2;66.5
77469;BME280;68840;50.272;12.818;2024-01-06T04:04:07;94860;;;5.2;66.7
77469;BME280;68840;50.272;12.818;2024-01-06T04:06:05;94855;;;5.2;66.4
77469;BME280;68840;50.272;12.818;2024-01-06T04:08:06;94853;;;5.2;66.5
77469;BME280;68840;50.272;12.818;2024-01-06T04:10:05;94850;;;5.2;66.2
77469;BME280;68840;50.272;12.818;2024-01-06T04:12:06;94850;;;5.2;66.1
77469;BME280;68840;50.272;12.818;2024-01-06T04:14:05;94848;;;5.3;65.9
77469;BME280;68840;50.272;12.818;2024-01-06T04:16:06;94850;;;5.3;65.8
77469;BME280;68840;50.272;12.818;2024-01-06T04:18:06;94851;;;5.3;65.7
77469;BME280;68840;50.272;12.818;2024-01-06T04:20:06;94856;;;5.3;65.7
77469;BME280;68840;50.272;12.818;2024-01-06T04:22:05;94860;;;5.3;65.3
77469;BME280;68840;50.272;12.818;2024-01-06T04:24:06;94861;;;5.3;65.7
77469;BME280;68840;50.272;12.818;2024-01-06T04:26:06;94863;;;5.3;65.8
77469;BME280;68840;50.272;12.818;2024-01-06T04:28:06;94864;;;5.3;65.5
77469;BME280;68840;50.272;12.818;2024-01-06T04:30:06;94866;;;5.3;65.7
77469;BME280;68840;50.272;12.818;2024-01-06T04:32:07;94866;;;5.3;65.5
77469;BME280;68840;50.272;12.818;2024-01-06T04:34:05;94865;;;5.3;65.6
77469;BME280;68840;50.272;12.818;2024-01-06T04:36:06;94865;;;5.3;65.7
77469;BME280;68840;50.272;12.818;2024-01-06T04:38:05;94868;;;5.3;65.4
77469;BME280;68840;50.272;12.818;2024-01-06T04:40:07;94869;;;5.3;65.5
77469;BME280;68840;50.272;12.818;2024-01-06T04:42:05;94869;;;5.3;65.7
77469;BME280;68840;50.272;12.818;2024-01-06T04:44:05;94869;;;5.3;65.6
77469;BME280;68840;50.272;12.818;2024-01-06T04:46:05;94869;;;5.3;65.6
77469;BME280;68840;50.272;12.818;2024-01-06T04:48:06;94873;;;5.3;65.6
77469;BME280;68840;50.272;12.818;2024-01-06T04:50:06;94874;;;5.3;65.6
77469;BME280;68840;50.272;12.818;2024-01-06T04:52:06;94873;;;5.3;65.4
77469;BME280;68840;50.272;12.818;2024-01-06T04:54:05;94876;;;5.3;65.2
77469;BME280;68840;50.272;12.818;2024-01-06T04:56:05;94880;;;5.3;65.0
77469;BME280;68840;50.272;12.818;2024-01-06T04:58:06;94882;;;5.3;65.2
77469;BME280;68840;50.272;12.818;2024-01-06T05:00:06;94885;;;5.3;65.3
77469;BME280;68840;50.272;12.818;2024-01-06T05:02:06;94891;;;5.3;65.9
77469;BME280;68840;50.272;12.818;2024-01-06T05:04:05;94894;;;5.3;65.7
77469;BME280;68840;50.272;12.818;2024-01-06T05:06:06;94898;;;5.3;65.6
77469;BME280;68840;50.272;12.818;2024-01-06T05:08:06;94899;;;5.3;65.7
77469;BME280;68840;50.272;12.818;2024-01-06T05:10:07;94899;;;5.3;66.0
77469;BME280;68840;50.272;12.818;2024-01-06T05:12:06;94899;;;5.3;65.6
77469;BME280;68840;50.272;12.818;2024-01-06T05:14:06;94897;;;5.3;65.6
77469;BME280;68840;50.272;12.818;2024-01-06T05:16:07;94897;;;5.3;65.8
77469;BME280;68840;50.272;12.818;2024-01-06T05:18:06;94897;;;5.3;65.9
77469;BME280;68840;50.272;12.818;2024-01-06T05:20:06;94896;;;5.3;66.1
77469;BME280;68840;50.272;12.818;2024-01-06T05:22:05;94898;;;5.3;65.9
77469;BME280;68840;50.272;12.818;2024-01-06T05:24:06;94902;;;5.2;66.1
77469;BME280;68840;50.272;12.818;2024-01-06T05:26:05;94906;;;5.2;66.3
77469;BME280;68840;50.272;12.818;2024-01-06T05:28:05;94910;;;5.2;66.4
77469;BME280;68840;50.272;12.818;2024-01-06T05:30:07;94910;;;5.2;66.6
77469;BME280;68840;50.272;12.818;2024-01-06T05:32:06;94913;;;5.3;66.3
77469;BME280;68840;50.272;12.818;2024-01-06T05:34:05;94910;;;5.3;66.0
77469;BME280;68840;50.272;12.818;2024-01-06T05:36:06;94911;;;5.3;66.1
77469;BME280;68840;50.272;12.818;2024-01-06T05:38:05;94913;;;5.2;66.4
77469;BME280;68840;50.272;12.818;2024-01-06T05:40:06;94917;;;5.2;66.3
77469;BME280;68840;50.272;12.818;2024-01-06T05:42:05;94920;;;5.2;66.1
77469;BME280;68840;50.272;12.818;2024-01-06T05:44:06;94924;;;5.2;66.2
77469;BME280;68840;50.272;12.818;2024-01-06T05:46:05;94924;;;5.2;66.2
77469;BME280;68840;50.272;12.818;2024-01-06T05:48:08;94929;;;5.2;66.3
77469;BME280;68840;50.272;12.818;2024-01-06T05:50:09;94929;;;5.2;66.0
77469;BME280;68840;50.272;12.818;2024-01-06T05:52:06;94928;;;5.2;66.2
77469;BME280;68840;50.272;12.818;2024-01-06T05:54:05;94928;;;5.2;66.6
77469;BME280;68840;50.272;12.818;2024-01-06T05:56:06;94928;;;5.2;66.0
77469;BME280;68840;50.272;12.818;2024-01-06T05:58:05;94931;;;5.1;65.5
77469;BME280;68840;50.272;12.818;2024-01-06T06:00:08;94935;;;5.1;66.0
77469;BME280;68840;50.272;12.818;2024-01-06T06:02:06;94935;;;5.1;66.2
77469;BME280;68840;50.272;12.818;2024-01-06T06:04:05;94935;;;5.1;66.0
77469;BME280;68840;50.272;12.818;2024-01-06T06:06:05;94937;;;5.1;66.2
77469;BME280;68840;50.272;12.818;2024-01-06T06:08:05;94940;;;5.1;66.0
77469;BME280;68840;50.272;12.818;2024-01-06T06:10:08;94940;;;5.0;65.8
77469;BME280;68840;50.272;12.818;2024-01-06T06:12:09;94941;;;5.0;66.2
77469;BME280;68840;50.272;12.818;2024-01-06T06:14:05;94940;;;5.0;66.1
77469;BME280;68840;50.272;12.818;2024-01-06T06:16:06;94941;;;5.0;66.1
77469;BME280;68840;50.272;12.818;2024-01-06T06:18:07;94941;;;5.0;66.3
77469;BME280;68840;50.272;12.818;2024-01-06T06:20:06;94943;;;5.0;65.9
77469;BME280;68840;50.272;12.818;2024-01-06T06:22:06;94947;;;5.0;66.2
77469;BME280;68840;50.272;12.818;2024-01-06T06:24:06;94951;;;5.0;66.2
77469;BME280;68840;50.272;12.818;2024-01-06T06:26:06;94954;;;5.0;66.4
77469;BME280;68840;50.272;12.818;2024-01-06T06:28:06;94956;;;5.0;66.8
77469;BME280;68840;50.272;12.818;2024-01-06T06:30:06;94958;;;5.0;67.0
77469;BME280;68840;50.272;12.818;2024-01-06T06:32:06;94959;;;5.0;66.9
77469;BME280;68840;50.272;12.818;2024-01-06T06:34:05;94961;;;5.0;66.6
77469;BME280;68840;50.272;12.818;2024-01-06T06:36:06;94965;;;5.0;67.0
77469;BME280;68840;50.272;12.818;2024-01-06T06:38:06;94970;;;5.0;66.9
77469;BME280;68840;50.272;12.818;2024-01-06T06:40:06;94970;;;5.0;66.3
77469;BME280;68840;50.272;12.818;2024-01-06T06:42:05;94972;;;5.0;66.4
77469;BME280;68840;50.272;12.818;2024-01-06T06:44:06;94975;;;5.0;66.6
77469;BME280;68840;50.272;12.818;2024-01-06T06:46:05;94978;;;5.0;66.7
77469;BME280;68840;50.272;12.818;2024-01-06T06:48:06;94978;;;5.0;67.0
77469;BME280;68840;50.272;12.818;2024-01-06T06:50:06;94979;;;5.0;66.9
77469;BME280;68840;50.272;12.818;2024-01-06T06:52:07;94982;;;5.0;66.7
77469;BME280;68840;50.272;12.818;2024-01-06T06:54:06;94984;;;5.0;66.8
77469;BME280;68840;50.272;12.818;2024-01-06T06:56:06;94990;;;5.0;66.9
77469;BME280;68840;50.272;12.818;2024-01-06T06:58:05;94997;;;5.0;66.0
77469;BME280;68840;50.272;12.818;2024-01-06T07:00:07;94999;;;5.0;66.7
77469;BME280;68840;50.272;12.818;2024-01-06T07:02:05;95002;;;5.0;66.9
77469;BME280;68840;50.272;12.818;2024-01-06T07:04:05;95003;;;5.0;66.7
77469;BME280;68840;50.272;12.818;2024-01-06T07:06:05;95002;;;5.1;66.8
77469;BME280;68840;50.272;12.818;2024-01-06T07:08:06;95000;;;5.1;66.9
77469;BME280;68840;50.272;12.818;2024-01-06T07:10:06;94997;;;5.1;67.4
77469;BME280;68840;50.272;12.818;2024-01-06T07:12:06;94996;;;5.1;67.0
77469;BME280;68840;50.272;12.818;2024-01-06T07:14:05;94996;;;5.1;67.0
77469;BME280;68840;50.272;12.818;2024-01-06T07:16:06;94999;;;5.1;66.7
77469;BME280;68840;50.272;12.818;2024-01-06T07:18:06;95001;;;5.1;67.0
77469;BME280;68840;50.272;12.818;2024-01-06T07:20:07;95002;;;5.1;66.8
77469;BME280;68840;50.272;12.818;2024-01-06T07:22:05;95006;;;5.1;66.6
77469;BME280;68840;50.272;12.818;2024-01-06T07:24:05;95005;;;5.1;66.5
77469;BME280;68840;50.272;12.818;2024-01-06T07:26:06;95008;;;5.1;66.4
77469;BME280;68840;50.272;12.818;2024-01-06T07:28:08;95012;;;5.1;66.6
77469;BME280;68840;50.272;12.818;2024-01-06T07:30:07;95017;;;5.1;66.4
77469;BME280;68840;50.272;12.818;2024-01-06T07:32:06;95022;;;5.1;66.6
77469;BME280;68840;50.272;12.818;2024-01-06T07:34:06;95026;;;5.1;66.9
77469;BME280;68840;50.272;12.818;2024-01-06T07:36:06;95028;;;5.1;66.1
77469;BME280;68840;50.272;12.818;2024-01-06T07:38:05;95029;;;5.1;66.1
77469;BME280;68840;50.272;12.818;2024-01-06T07:40:06;95028;;;5.1;66.6
77469;BME280;68840;50.272;12.818;2024-01-06T07:42:05;95034;;;5.1;66.2
77469;BME280;68840;50.272;12.818;2024-01-06T07:44:06;95035;;;5.1;65.8
77469;BME280;68840;50.272;12.818;2024-01-06T07:46:07;95037;;;5.0;65.8
77469;BME280;68840;50.272;12.818;2024-01-06T07:48:06;95040;;;5.0;65.9
77469;BME280;68840;50.272;12.818;2024-01-06T07:50:06;95041;;;4.9;66.2
77469;BME280;68840;50.272;12.818;2024-01-06T07:52:05;95042;;;4.9;66.1
77469;BME280;68840;50.272;12.818;2024-01-06T07:54:08;95044;;;4.9;65.5
77469;BME280;68840;50.272;12.818;2024-01-06T07:56:06;95047;;;4.9;65.3
77469;BME280;68840;50.272;12.818;2024-01-06T07:58:05;95051;;;4.9;65.4
77469;BME280;68840;50.272;12.818;2024-01-06T08:00:07;95055;;;4.8;65.9
77469;BME280;68840;50.272;12.818;2024-01-06T08:02:05;95059;;;4.8;66.1
77469;BME280;68840;50.272;12.818;2024-01-06T08:04:05;95060;;;4.8;65.9
77469;BME280;68840;50.272;12.818;2024-01-06T08:06:06;95062;;;4.8;66.4
77469;BME280;68840;50.272;12.818;2024-01-06T08:08:06;95065;;;4.8;65.9
77469;BME280;68840;50.272;12.818;2024-01-06T08:10:06;95073;;;4.8;66.4
77469;BME280;68840;50.272;12.818;2024-01-06T08:12:06;95077;;;4.8;66.4
77469;BME280;68840;50.272;12.818;2024-01-06T08:14:05;95078;;;4.8;66.9
77469;BME280;68840;50.272;12.818;2024-01-06T08:16:06;95081;;;4.8;66.9
77469;BME280;68840;50.272;12.818;2024-01-06T08:18:05;95082;;;4.8;67.2
77469;BME280;68840;50.272;12.818;2024-01-06T08:20:06;95083;;;4.8;67.4
77469;BME280;68840;50.272;12.818;2024-01-06T08:22:05;95087;;;4.9;67.8
77469;BME280;68840;50.272;12.818;2024-01-06T08:24:05;95087;;;4.9;67.8
77469;BME280;68840;50.272;12.818;2024-01-06T08:26:06;95087;;;4.9;67.7
77469;BME280;68840;50.272;12.818;2024-01-06T08:28:05;95085;;;4.9;67.7
77469;BME280;68840;50.272;12.818;2024-01-06T08:30:06;95086;;;5.0;67.9
77469;BME280;68840;50.272;12.818;2024-01-06T08:32:06;95088;;;5.0;67.9
77469;BME280;68840;50.272;12.818;2024-01-06T08:34:07;95091;;;5.0;68.2
77469;BME280;68840;50.272;12.818;2024-01-06T08:36:06;95093;;;5.0;68.3
77469;BME280;68840;50.272;12.818;2024-01-06T08:38:06;95094;;;5.1;68.4
77469;BME280;68840;50.272;12.818;2024-01-06T08:40:07;95094;;;5.1;68.4
77469;BME280;68840;50.272;12.818;2024-01-06T08:42:05;95093;;;5.1;67.8
77469;BME280;68840;50.272;12.818;2024-01-06T08:44:05;95093;;;5.1;68.6
77469;BME280;68840;50.272;12.818;2024-01-06T08:46:05;95093;;;5.2;69.1
77469;BME280;68840;50.272;12.818;2024-01-06T08:48:06;95094;;;5.2;68.0
77469;BME280;68840;50.272;12.818;2024-01-06T08:50:07;95094;;;5.2;68.9
77469;BME280;68840;50.272;12.818;2024-01-06T08:52:05;95097;;;5.3;69.0
77469;BME280;68840;50.272;12.818;2024-01-06T08:54:05;95099;;;5.3;68.8
77469;BME280;68840;50.272;12.818;2024-01-06T08:56:06;95103;;;5.4;69.1
77469;BME280;68840;50.272;12.818;2024-01-06T08:58:05;95104;;;5.4;69.2
77469;BME280;68840;50.272;12.818;2024-01-06T09:00:06;95106;;;5.5;69.2
77469;BME280;68840;50.272;12.818;2024-01-06T09:02:05;95107;;;5.5;68.2
77469;BME280;68840;50.272;12.818;2024-01-06T09:04:06;95108;;;5.5;68.2
77469;BME280;68840;50.272;12.818;2024-01-06T09:06:05;95108;;;5.6;68.5
77469;BME280;68840;50.272;12.818;2024-01-06T09:08:06;95108;;;5.6;68.4
77469;BME280;68840;50.272;12.818;2024-01-06T09:10:06;95110;;;5.6;68.6
77469;BME280;68840;50.272;12.818;2024-01-06T09:12:06;95111;;;5.6;69.0
77469;BME280;68840;50.272;12.818;2024-01-06T09:14:05;95111;;;5.7;67.6
77469;BME280;68840;50.272;12.818;2024-01-06T09:16:07;95110;;;5.7;68.5
77469;BME280;68840;50.272;12.818;2024-01-06T09:18:05;95110;;;5.8;67.8
77469;BME280;68840;50.272;12.818;2024-01-06T09:20:06;95109;;;5.8;67.7
77469;BME280;68840;50.272;12.818;2024-01-06T09:22:05;95105;;;5.8;66.7
77469;BME280;68840;50.272;12.818;2024-01-06T09:24:07;95104;;;5.8;67.0
77469;BME280;68840;50.272;12.818;2024-01-06T09:26:06;95104;;;5.8;66.6
77469;BME280;68840;50.272;12.818;2024-01-06T09:28:06;95105;;;5.8;67.0
77469;BME280;68840;50.272;12.818;2024-01-06T09:30:08;95107;;;5.8;68.3
77469;BME280;68840;50.272;12.818;2024-01-06T09:32:06;95107;;;5.9;68.9
77469;BME280;68840;50.272;12.818;2024-01-06T09:34:09;95110;;;5.9;68.1
77469;BME280;68840;50.272;12.818;2024-01-06T09:36:06;95111;;;5.9;68.6
77469;BME280;68840;50.272;12.818;2024-01-06T09:38:07;95115;;;6.0;68.9
77469;BME280;68840;50.272;12.818;2024-01-06T09:40:08;95118;;;6.0;68.5
77469;BME280;68840;50.272;12.818;2024-01-06T09:42:05;95123;;;6.1;68.3
77469;BME280;68840;50.272;12.818;2024-01-06T09:44:06;95127;;;6.1;68.0
77469;BME280;68840;50.272;12.818;2024-01-06T09:46:10;95130;;;6.2;67.8
77469;BME280;68840;50.272;12.818;2024-01-06T09:48:13;95134;;;6.2;66.9
77469;BME280;68840;50.272;12.818;2024-01-06T09:50:09;95138;;;6.2;67.0
77469;BME280;68840;50.272;12.818;2024-01-06T09:52:12;95141;;;6.2;67.6
77469;BME280;68840;50.272;12.818;2024-01-06T09:54:09;95141;;;6.2;66.7
77469;BME280;68840;50.272;12.818;2024-01-06T09:56:06;95139;;;6.2;66.1
77469;BME280;68840;50.272;12.818;2024-01-06T09:58:06;95136;;;6.2;66.6
77469;BME280;68840;50.272;12.818;2024-01-06T10:00:08;95133;;;6.2;66.8
77469;BME280;68840;50.272;12.818;2024-01-06T10:02:06;95127;;;6.2;65.9
77469;BME280;68840;50.272;12.818;2024-01-06T10:04:05;95125;;;6.2;66.7
77469;BME280;68840;50.272;12.818;2024-01-06T10:06:06;95124;;;6.1;66.8
77469;BME280;68840;50.272;12.818;2024-01-06T10:08:06;95125;;;6.2;67.6
77469;BME280;68840;50.272;12.818;2024-01-06T10:10:07;95126;;;6.2;67.3
77469;BME280;68840;50.272;12.818;2024-01-06T10:12:07;95124;;;6.2;67.3
77469;BME280;68840;50.272;12.818;2024-01-06T10:14:06;95120;;;6.2;66.8
77469;BME280;68840;50.272;12.818;2024-01-06T10:16:06;95119;;;6.2;67.2
77469;BME280;68840;50.272;12.818;2024-01-06T10:18:08;95120;;;6.3;66.9
77469;BME280;68840;50.272;12.818;2024-01-06T10:20:08;95123;;;6.3;67.0
77469;BME280;68840;50.272;12.818;2024-01-06T10:22:06;95123;;;6.4;66.9
77469;BME280;68840;50.272;12.818;2024-01-06T10:24:07;95125;;;6.4;66.3
77469;BME280;68840;50.272;12.818;2024-01-06T10:26:06;95126;;;6.4;66.6
77469;BME280;68840;50.272;12.818;2024-01-06T10:28:06;95129;;;6.4;66.8
77469;BME280;68840;50.272;12.818;2024-01-06T10:30:07;95132;;;6.5;67.0
77469;BME280;68840;50.272;12.818;2024-01-06T10:32:06;95134;;;6.5;67.2
77469;BME280;68840;50.272;12.818;2024-01-06T10:34:06;95135;;;6.5;67.2
77469;BME280;68840;50.272;12.818;2024-01-06T10:36:06;95133;;;6.5;67.1
77469;BME280;68840;50.272;12.818;2024-01-06T10:38:07;95131;;;6.4;66.5
77469;BME280;68840;50.272;12.818;2024-01-06T10:40:08;95132;;;6.4;67.1
77469;BME280;68840;50.272;12.818;2024-01-06T10:42:06;95130;;;6.4;66.1
77469;BME280;68840;50.272;12.818;2024-01-06T10:44:06;95129;;;6.4;66.4
77469;BME280;68840;50.272;12.818;2024-01-06T10:46:10;95127;;;6.5;67.3
77469;BME280;68840;50.272;12.818;2024-01-06T10:48:06;95125;;;6.5;67.2
77469;BME280;68840;50.272;12.818;2024-01-06T10:50:08;95124;;;6.5;67.4
77469;BME280;68840;50.272;12.818;2024-01-06T10:52:06;95125;;;6.5;67.0
77469;BME280;68840;50.272;12.818;2024-01-06T10:54:06;95125;;;6.5;67.3
77469;BME280;68840;50.272;12.818;2024-01-06T10:56:07;95123;;;6.5;67.2
77469;BME280;68840;50.272;12.818;2024-01-06T10:58:06;95122;;;6.6;66.9
77469;BME280;68840;50.272;12.818;2024-01-06T11:00:07;95121;;;6.6;67.0
77469;BME280;68840;50.272;12.818;2024-01-06T11:02:06;95122;;;6.6;66.2
77469;BME280;68840;50.272;12.818;2024-01-06T11:04:06;95121;;;6.6;65.0
77469;BME280;68840;50.272;12.818;2024-01-06T11:06:07;95121;;;6.6;64.8
77469;BME280;68840;50.272;12.818;2024-01-06T11:08:08;95121;;;6.6;65.3
77469;BME280;68840;50.272;12.818;2024-01-06T11:10:10;95122;;;6.5;65.1
77469;BME280;68840;50.272;12.818;2024-01-06T11:12:06;95122;;;6.5;66.3
77469;BME280;68840;50.272;12.818;2024-01-06T11:14:23;95125;;;6.5;66.5
77469;BME280;68840;50.272;12.818;2024-01-06T11:16:07;95123;;;6.5;67.1
77469;BME280;68840;50.272;12.818;2024-01-06T11:18:06;95122;;;6.5;66.8
77469;BME280;68840;50.272;12.818;2024-01-06T11:20:06;95120;;;6.6;67.1